Time;durP1;ratioP1;P1;durP2;ratioP2;P2;SDS_P1;SDS_P2;PMS_P1;PMS_P2;Temp;Humidity;BMP_temperature;BMP_pressure;BME280_temperature;BME280_humidity;BME280_pressure;Samples;Min_cycle;Max_cycle;Signal;HPM_P1;HPM_P2
2023/12/21 00:02:15;;;;;;;6.50;1.60;;;9.50;92.90;;;;;;5068856;28;20095;-79
2023/12/21 00:04:44;;;;;;;9.10;1.90;;;9.50;92.80;;;;;;5068423;28;20565;-79
2023/12/21 00:07:11;;;;;;;8.65;1.73;;;9.50;92.90;;;;;;5069224;28;20049;-79
2023/12/21 00:09:38;;;;;;;10.20;2.20;;;9.50;92.80;;;;;;5070080;28;20878;-79
2023/12/21 00:12:05;;;;;;;8.32;1.95;;;9.50;92.80;;;;;;5070040;28;20725;-79
2023/12/21 00:14:33;;;;;;;11.38;2.95;;;9.60;92.70;;;;;;5067824;28;20598;-79
2023/12/21 00:17:00;;;;;;;9.60;1.98;;;9.60;92.60;;;;;;5069141;28;20072;-79
2023/12/21 00:19:27;;;;;;;9.80;2.05;;;9.60;92.60;;;;;;5068208;28;20094;-79
2023/12/21 00:21:55;;;;;;;11.33;2.03;;;9.60;92.50;;;;;;5068509;28;20604;-79
2023/12/21 00:24:22;;;;;;;11.52;2.33;;;9.60;92.50;;;;;;5066414;28;20334;-79
2023/12/21 00:26:49;;;;;;;9.32;1.83;;;9.60;92.50;;;;;;5067417;28;20083;-79
2023/12/21 00:29:17;;;;;;;11.30;2.63;;;9.60;92.50;;;;;;5068304;28;20056;-78
2023/12/21 00:31:44;;;;;;;8.68;2.05;;;9.60;92.30;;;;;;5066392;28;20053;-79
2023/12/21 00:34:11;;;;;;;8.63;1.73;;;9.60;92.20;;;;;;5030534;28;20084;-78
2023/12/21 00:36:38;;;;;;;10.88;2.13;;;9.60;92.30;;;;;;5047984;28;20283;-78
2023/12/21 00:39:08;;;;;;;7.00;1.70;;;9.60;92.30;;;;;;5049402;28;20522;-79
2023/12/21 00:41:35;;;;;;;6.47;1.48;;;9.60;92.20;;;;;;5061487;28;20061;-79
2023/12/21 00:44:02;;;;;;;7.93;1.80;;;9.60;92.20;;;;;;5068136;28;20128;-79
2023/12/21 00:46:29;;;;;;;9.17;1.73;;;9.50;92.30;;;;;;5068086;28;20049;-78
2023/12/21 00:48:56;;;;;;;8.32;1.85;;;9.50;92.30;;;;;;5096022;22;20399;-80
2023/12/21 00:51:23;;;;;;;3.72;0.88;;;9.60;92.20;;;;;;5064645;28;20380;-79
2023/12/21 00:53:50;;;;;;;8.43;2.17;;;9.60;92.20;;;;;;5049096;28;20140;-79
2023/12/21 00:56:18;;;;;;;7.60;1.63;;;9.60;92.10;;;;;;5063629;28;20050;-79
2023/12/21 00:58:45;;;;;;;7.33;1.53;;;9.60;92.10;;;;;;5035722;28;20053;-79
2023/12/21 01:01:12;;;;;;;8.95;2.00;;;9.60;91.90;;;;;;5026808;28;20332;-78
2023/12/21 01:03:38;;;;;;;9.15;2.05;;;9.60;91.90;;;;;;5032825;28;20496;-79
2023/12/21 01:06:05;;;;;;;9.57;2.30;;;9.60;91.80;;;;;;5027356;28;20084;-79
2023/12/21 01:08:32;;;;;;;8.68;1.95;;;9.60;91.80;;;;;;5024251;28;20049;-78
2023/12/21 01:11:00;;;;;;;13.80;2.33;;;9.60;91.80;;;;;;5043639;28;20058;-78
2023/12/21 01:13:32;;;;;;;7.20;1.75;;;9.60;91.90;;;;;;5027761;28;20355;-79
2023/12/21 01:15:59;;;;;;;10.07;2.08;;;9.60;91.90;;;;;;5044557;28;20046;-78
2023/12/21 01:18:25;;;;;;;11.38;2.60;;;9.60;91.90;;;;;;5063534;28;20050;-79
2023/12/21 01:20:52;;;;;;;7.47;1.98;;;9.60;91.80;;;;;;5047185;28;20643;-79
2023/12/21 01:23:19;;;;;;;11.03;2.40;;;9.60;91.70;;;;;;5064286;28;20057;-79
2023/12/21 01:25:46;;;;;;;12.15;1.98;;;9.60;91.70;;;;;;5033284;28;20790;-79
2023/12/21 01:28:13;;;;;;;8.55;1.75;;;9.60;91.70;;;;;;5025827;28;20056;-78
2023/12/21 01:30:41;;;;;;;6.70;1.50;;;9.60;91.80;;;;;;5028647;28;20054;-79
2023/12/21 01:33:08;;;;;;;9.05;2.08;;;9.60;91.70;;;;;;5029725;28;20069;-78
2023/12/21 01:35:35;;;;;;;8.67;1.60;;;9.60;91.80;;;;;;5048488;28;20079;-78
2023/12/21 01:38:02;;;;;;;11.63;1.75;;;9.60;91.70;;;;;;5062657;28;20276;-79
2023/12/21 01:40:29;;;;;;;10.15;2.72;;;9.60;91.70;;;;;;5048435;28;20192;-79
2023/12/21 01:42:56;;;;;;;6.63;1.40;;;9.60;91.70;;;;;;5044623;28;20133;-79
2023/12/21 01:45:23;;;;;;;8.68;2.03;;;9.60;91.70;;;;;;5028104;28;20060;-79
2023/12/21 01:47:52;;;;;;;9.23;2.13;;;9.60;91.70;;;;;;5027112;28;20137;-79
2023/12/21 01:50:19;;;;;;;6.68;1.38;;;9.60;91.70;;;;;;5028384;28;20272;-79
2023/12/21 01:52:47;;;;;;;12.25;2.28;;;9.60;91.70;;;;;;5027492;28;20111;-78
2023/12/21 01:55:16;;;;;;;7.25;1.35;;;9.60;91.80;;;;;;5027053;28;20062;-79
2023/12/21 01:57:44;;;;;;;9.07;2.20;;;9.60;91.80;;;;;;5026260;28;20181;-79
2023/12/21 02:00:13;;;;;;;6.43;1.53;;;9.60;91.70;;;;;;5033986;28;20049;-79
2023/12/21 02:02:40;;;;;;;9.85;1.45;;;9.60;91.60;;;;;;5048377;28;20753;-79
2023/12/21 02:05:10;;;;;;;8.15;1.85;;;9.50;91.70;;;;;;5063635;28;20046;-79
2023/12/21 02:07:37;;;;;;;10.93;2.13;;;9.60;91.60;;;;;;5062638;28;20590;-78
2023/12/21 02:10:04;;;;;;;6.57;1.45;;;9.60;91.50;;;;;;5045931;28;20053;-79
2023/12/21 02:12:31;;;;;;;7.90;1.20;;;9.60;91.50;;;;;;5048138;28;20049;-78
2023/12/21 02:14:58;;;;;;;10.77;1.55;;;9.60;91.50;;;;;;5063263;28;20285;-79
2023/12/21 02:17:26;;;;;;;7.72;1.90;;;9.60;91.50;;;;;;5045426;28;20479;-78
2023/12/21 02:19:54;;;;;;;5.65;0.90;;;9.60;91.50;;;;;;5047786;28;20089;-79
2023/12/21 02:22:25;;;;;;;11.70;2.03;;;9.60;91.40;;;;;;5046368;28;20056;-79
2023/12/21 02:24:53;;;;;;;11.43;1.83;;;9.50;91.40;;;;;;5048014;28;20132;-79
2023/12/21 02:27:20;;;;;;;7.53;1.35;;;9.60;91.40;;;;;;5046878;28;20384;-79
2023/12/21 02:29:47;;;;;;;13.23;1.60;;;9.60;91.40;;;;;;5046522;28;20096;-79
2023/12/21 02:32:14;;;;;;;7.93;1.42;;;9.60;91.30;;;;;;5047583;28;20053;-79
2023/12/21 02:34:41;;;;;;;7.45;1.45;;;9.60;91.30;;;;;;5060862;28;20046;-79
2023/12/21 02:37:07;;;;;;;11.27;1.70;;;9.60;91.50;;;;;;5027112;28;20056;-79
2023/12/21 02:39:34;;;;;;;6.15;0.80;;;9.60;91.60;;;;;;5026709;28;20268;-79
2023/12/21 02:42:02;;;;;;;9.75;1.83;;;9.50;91.70;;;;;;5028072;28;20077;-79
2023/12/21 02:44:29;;;;;;;8.93;1.50;;;9.50;91.80;;;;;;5033717;28;20056;-78
2023/12/21 02:46:57;;;;;;;6.10;1.30;;;9.60;91.90;;;;;;5046744;28;20072;-78
2023/12/21 02:49:24;;;;;;;9.85;1.98;;;9.60;91.90;;;;;;5047083;28;20253;-79
2023/12/21 02:51:51;;;;;;;8.63;1.70;;;9.60;91.90;;;;;;5047511;28;20050;-79
2023/12/21 02:54:18;;;;;;;6.05;1.00;;;9.50;92.10;;;;;;5047660;28;20512;-79
2023/12/21 02:56:44;;;;;;;5.47;1.38;;;9.50;92.10;;;;;;5062619;28;20058;-79
2023/12/21 02:59:13;;;;;;;8.73;1.80;;;9.60;92.00;;;;;;5065433;28;20550;-79
2023/12/21 03:01:41;;;;;;;9.75;1.85;;;9.60;91.90;;;;;;5066010;28;20261;-79
2023/12/21 03:04:09;;;;;;;13.38;2.33;;;9.60;91.80;;;;;;5049166;28;20515;-78
2023/12/21 03:06:37;;;;;;;9.52;1.83;;;9.60;91.70;;;;;;5048508;28;20136;-79
2023/12/21 03:09:04;;;;;;;9.63;1.83;;;9.60;91.60;;;;;;5050378;28;20499;-79
2023/12/21 03:11:31;;;;;;;5.50;1.30;;;9.60;91.60;;;;;;5050883;28;20042;-78
2023/12/21 03:13:57;;;;;;;5.70;1.02;;;9.60;91.60;;;;;;5050635;28;20344;-78
2023/12/21 03:16:26;;;;;;;6.45;1.27;;;9.60;91.70;;;;;;5065770;28;20234;-78
2023/12/21 03:18:53;;;;;;;8.18;1.90;;;9.60;91.70;;;;;;5050309;28;20190;-78
2023/12/21 03:21:19;;;;;;;5.60;1.10;;;9.60;91.50;;;;;;5049581;28;20053;-79
2023/12/21 03:23:46;;;;;;;6.97;1.40;;;9.60;91.60;;;;;;5050743;28;20183;-79
2023/12/21 03:26:16;;;;;;;5.57;1.55;;;9.60;91.60;;;;;;5065061;28;20750;-78
2023/12/21 03:28:44;;;;;;;7.57;1.75;;;9.50;91.80;;;;;;5050368;28;20131;-78
2023/12/21 03:31:12;;;;;;;6.35;1.25;;;9.50;91.80;;;;;;5065558;28;20539;-79
2023/12/21 03:33:40;;;;;;;7.30;1.65;;;9.50;92.00;;;;;;5050089;28;20049;-79
2023/12/21 03:36:07;;;;;;;4.83;1.00;;;9.50;92.00;;;;;;5064988;28;20479;-79
2023/12/21 03:38:34;;;;;;;5.60;1.27;;;9.50;92.00;;;;;;5030004;28;20348;-78
2023/12/21 03:41:01;;;;;;;8.43;1.65;;;9.50;92.00;;;;;;5029078;28;20050;-79
2023/12/21 03:43:28;;;;;;;4.75;1.20;;;9.50;92.10;;;;;;5028784;28;20614;-78
2023/12/21 03:45:55;;;;;;;6.35;1.50;;;9.50;92.20;;;;;;5046097;28;20481;-78
2023/12/21 03:48:22;;;;;;;7.73;1.83;;;9.50;92.20;;;;;;5064839;28;20582;-79
2023/12/21 03:50:50;;;;;;;8.38;2.05;;;9.50;92.30;;;;;;5065380;28;20264;-78
2023/12/21 03:53:17;;;;;;;3.63;1.40;;;9.50;92.40;;;;;;5050133;28;20053;-78
2023/12/21 03:55:44;;;;;;;6.20;1.92;;;9.50;92.50;;;;;;5049538;28;20064;-78
2023/12/21 03:58:11;;;;;;;7.20;1.70;;;9.50;92.50;;;;;;5064550;28;20134;-78
2023/12/21 04:00:38;;;;;;;5.13;1.63;;;9.50;92.50;;;;;;5048603;28;20553;-78
2023/12/21 04:03:05;;;;;;;4.82;1.60;;;9.50;92.50;;;;;;5049797;28;20350;-78
2023/12/21 04:05:32;;;;;;;3.92;1.30;;;9.50;92.50;;;;;;5049243;28;20535;-78
2023/12/21 04:08:00;;;;;;;5.80;1.70;;;9.50;92.60;;;;;;5064477;28;20053;-78
2023/12/21 04:10:27;;;;;;;8.25;1.85;;;9.50;92.60;;;;;;5049882;28;20055;-78
2023/12/21 04:12:54;;;;;;;6.70;2.27;;;9.50;92.60;;;;;;5048108;28;20046;-78
2023/12/21 04:15:21;;;;;;;7.85;1.77;;;9.50;92.60;;;;;;5048180;28;20287;-78
2023/12/21 04:17:47;;;;;;;9.23;1.80;;;9.50;92.70;;;;;;5064472;28;20140;-78
2023/12/21 04:20:14;;;;;;;7.03;2.17;;;9.50;92.70;;;;;;5065557;28;20069;-78
2023/12/21 04:22:41;;;;;;;6.70;1.65;;;9.50;92.70;;;;;;5058197;28;20129;-78
2023/12/21 04:25:10;;;;;;;6.40;1.70;;;9.50;92.70;;;;;;5029522;28;20534;-78
2023/12/21 04:27:37;;;;;;;5.20;1.63;;;9.50;92.60;;;;;;5029141;28;20277;-78
2023/12/21 04:30:04;;;;;;;4.97;1.13;;;9.50;92.70;;;;;;5028444;28;20198;-78
2023/12/21 04:32:31;;;;;;;6.00;1.58;;;9.50;92.60;;;;;;5032263;28;20050;-78
2023/12/21 04:34:58;;;;;;;6.38;1.77;;;9.50;92.60;;;;;;5029841;28;20174;-78
2023/12/21 04:37:25;;;;;;;6.90;1.90;;;9.60;92.50;;;;;;5028824;28;20059;-78
2023/12/21 04:39:52;;;;;;;8.57;1.95;;;9.60;92.30;;;;;;5044259;28;20265;-78
2023/12/21 04:42:20;;;;;;;5.45;1.77;;;9.60;92.20;;;;;;5038751;28;20109;-78
2023/12/21 04:44:47;;;;;;;8.13;1.98;;;9.60;92.20;;;;;;5047905;28;20056;-78
2023/12/21 04:47:14;;;;;;;5.32;1.40;;;9.60;92.20;;;;;;5048795;28;20525;-78
2023/12/21 04:49:41;;;;;;;5.47;1.87;;;9.60;92.20;;;;;;5064256;28;20506;-77
2023/12/21 04:52:08;;;;;;;5.85;1.88;;;9.60;92.20;;;;;;5064396;28;20257;-78
2023/12/21 04:54:35;;;;;;;5.00;1.15;;;9.60;92.30;;;;;;5049204;28;20474;-78
2023/12/21 04:57:02;;;;;;;9.68;2.28;;;9.60;92.20;;;;;;5048518;28;20061;-77
2023/12/21 04:59:30;;;;;;;8.20;1.70;;;9.60;92.20;;;;;;5044083;28;20137;-78
2023/12/21 05:01:58;;;;;;;6.87;1.67;;;9.60;92.10;;;;;;5044440;28;20081;-78
2023/12/21 05:04:25;;;;;;;9.13;2.17;;;9.60;92.10;;;;;;5027982;28;20285;-78
2023/12/21 05:06:52;;;;;;;6.85;1.92;;;9.60;92.10;;;;;;5028590;28;20081;-78
2023/12/21 05:09:21;;;;;;;11.18;2.50;;;9.60;92.00;;;;;;5034061;28;20642;-78
2023/12/21 05:11:48;;;;;;;7.30;2.15;;;9.60;92.00;;;;;;5064250;28;20160;-78
2023/12/21 05:14:15;;;;;;;7.90;1.93;;;9.60;92.10;;;;;;5047910;28;20056;-78
2023/12/21 05:16:43;;;;;;;7.95;2.28;;;9.60;92.20;;;;;;5048047;28;20340;-78
2023/12/21 05:19:10;;;;;;;5.78;1.45;;;9.60;92.40;;;;;;5048370;28;20049;-78
2023/12/21 05:21:37;;;;;;;9.05;2.25;;;9.60;92.30;;;;;;5046099;28;20587;-78
2023/12/21 05:24:05;;;;;;;7.30;2.05;;;9.60;92.20;;;;;;5046388;28;20494;-78
2023/12/21 05:26:32;;;;;;;9.40;2.17;;;9.60;92.10;;;;;;5062939;28;20544;-78
2023/12/21 05:28:59;;;;;;;9.93;2.30;;;9.60;92.00;;;;;;5046573;28;20249;-78
2023/12/21 05:31:26;;;;;;;11.20;2.55;;;9.60;92.10;;;;;;5048549;28;20056;-78
2023/12/21 05:33:55;;;;;;;10.27;2.45;;;9.60;92.20;;;;;;5048308;28;20077;-78
2023/12/21 05:36:22;;;;;;;10.43;2.20;;;9.60;92.00;;;;;;5063378;28;20053;-78
2023/12/21 05:38:50;;;;;;;8.30;1.67;;;9.60;91.90;;;;;;5045530;28;20055;-78
2023/12/21 05:41:17;;;;;;;4.82;1.17;;;9.60;91.90;;;;;;5047155;28;20924;-78
2023/12/21 05:43:44;;;;;;;5.63;1.13;;;9.70;91.70;;;;;;5048181;28;20111;-77
2023/12/21 05:46:11;;;;;;;6.03;1.45;;;9.60;91.80;;;;;;5041439;28;20060;-77
2023/12/21 05:48:38;;;;;;;3.75;1.00;;;9.60;91.90;;;;;;5027884;28;20059;-78
2023/12/21 05:51:06;;;;;;;5.33;0.90;;;9.60;91.90;;;;;;5026947;28;20083;-78
2023/12/21 05:53:33;;;;;;;6.35;1.60;;;9.60;91.80;;;;;;5027048;28;20297;-78
2023/12/21 05:56:02;;;;;;;6.97;1.42;;;9.60;91.80;;;;;;5037921;28;20057;-77
2023/12/21 05:58:29;;;;;;;4.53;0.55;;;9.70;91.90;;;;;;5046310;28;20056;-78
2023/12/21 06:00:56;;;;;;;5.45;1.40;;;9.60;91.90;;;;;;5047055;28;20053;-78
2023/12/21 06:03:23;;;;;;;8.13;1.37;;;9.60;92.10;;;;;;5028011;28;20053;-78
2023/12/21 06:05:51;;;;;;;3.50;0.70;;;9.60;91.90;;;;;;5026720;28;20285;-78
2023/12/21 06:08:19;;;;;;;8.23;1.55;;;9.60;92.00;;;;;;5026692;28;20141;-78
2023/12/21 06:10:47;;;;;;;7.60;1.42;;;9.60;92.10;;;;;;5043868;28;20172;-78
2023/12/21 06:13:14;;;;;;;5.97;1.67;;;9.60;92.00;;;;;;5047038;28;20057;-78
2023/12/21 06:15:41;;;;;;;7.17;1.47;;;9.60;91.90;;;;;;5048169;28;20133;-78
2023/12/21 06:18:09;;;;;;;9.38;2.10;;;9.70;91.90;;;;;;5045190;28;20734;-78
2023/12/21 06:20:36;;;;;;;6.45;1.30;;;9.60;91.90;;;;;;5046899;28;20054;-78
2023/12/21 06:23:03;;;;;;;11.57;1.42;;;9.70;91.90;;;;;;5046084;28;20451;-78
2023/12/21 06:25:31;;;;;;;6.00;1.10;;;9.70;91.70;;;;;;5045822;28;20054;-78
2023/12/21 06:27:58;;;;;;;9.40;1.60;;;9.70;91.60;;;;;;5062162;28;20316;-78
2023/12/21 06:30:25;;;;;;;6.57;1.20;;;9.70;91.60;;;;;;5063064;28;20267;-78
2023/12/21 06:32:52;;;;;;;7.32;1.55;;;9.70;91.60;;;;;;5062842;28;20153;-78
2023/12/21 06:35:19;;;;;;;6.78;1.35;;;9.70;91.50;;;;;;5066291;28;20572;-79
2023/12/21 06:37:46;;;;;;;6.97;1.65;;;9.70;91.30;;;;;;5066246;28;20063;-78
2023/12/21 06:40:13;;;;;;;9.30;2.00;;;9.70;91.30;;;;;;5051074;28;20582;-78
2023/12/21 06:42:41;;;;;;;9.07;1.55;;;9.80;91.10;;;;;;5050413;28;20388;-78
2023/12/21 06:45:09;;;;;;;10.35;1.98;;;9.80;90.70;;;;;;5051031;28;20056;-78
2023/12/21 06:47:36;;;;;;;8.30;1.85;;;9.80;90.70;;;;;;5050135;28;20079;-79
2023/12/21 06:50:03;;;;;;;6.80;1.60;;;9.80;90.40;;;;;;5050363;28;20136;-78
2023/12/21 06:52:30;;;;;;;6.37;1.40;;;9.90;90.40;;;;;;5049519;28;20053;-78
2023/12/21 06:54:57;;;;;;;4.63;0.90;;;9.90;90.40;;;;;;5066356;28;20306;-78
2023/12/21 06:57:24;;;;;;;6.13;1.20;;;9.90;90.50;;;;;;5049889;28;20049;-78
2023/12/21 06:59:52;;;;;;;7.88;1.13;;;9.90;90.60;;;;;;5049753;28;20053;-78
2023/12/21 07:02:20;;;;;;;9.00;1.75;;;9.90;90.60;;;;;;5066036;28;20539;-78
2023/12/21 07:04:47;;;;;;;10.73;1.80;;;9.90;90.60;;;;;;5066231;28;20081;-78
2023/12/21 07:07:14;;;;;;;8.43;1.60;;;10.00;90.60;;;;;;5064830;28;20306;-78
2023/12/21 07:09:42;;;;;;;5.07;1.20;;;10.00;90.50;;;;;;5049078;28;20053;-78
2023/12/21 07:12:09;;;;;;;6.72;1.35;;;9.90;90.60;;;;;;5065560;28;20469;-78
2023/12/21 07:14:39;;;;;;;7.60;1.30;;;9.90;90.80;;;;;;5048579;28;20057;-78
2023/12/21 07:17:08;;;;;;;5.87;1.30;;;9.80;90.90;;;;;;5048958;28;20519;-78
2023/12/21 07:19:37;;;;;;;8.57;1.42;;;9.80;91.00;;;;;;5048749;28;20834;-78
2023/12/21 07:22:05;;;;;;;3.95;0.90;;;9.80;91.00;;;;;;5048725;28;20054;-79
2023/12/21 07:24:32;;;;;;;5.80;1.08;;;9.80;91.20;;;;;;5047252;28;20049;-79
2023/12/21 07:26:59;;;;;;;6.78;1.00;;;9.70;91.40;;;;;;5064295;28;20045;-78
2023/12/21 07:29:26;;;;;;;7.00;1.40;;;9.70;91.50;;;;;;5047857;28;20565;-78
2023/12/21 07:31:53;;;;;;;6.72;1.42;;;9.70;91.60;;;;;;5061710;28;20482;-78
2023/12/21 07:34:22;;;;;;;7.13;1.30;;;9.70;91.60;;;;;;5049349;28;20050;-79
2023/12/21 07:36:49;;;;;;;5.75;0.73;;;9.70;91.60;;;;;;5048210;28;20964;-78
2023/12/21 07:39:16;;;;;;;5.80;1.20;;;9.70;91.70;;;;;;5047389;28;20136;-78
2023/12/21 07:41:46;;;;;;;5.47;1.20;;;9.70;91.70;;;;;;5050042;28;20500;-79
2023/12/21 07:44:13;;;;;;;6.15;1.02;;;9.80;91.70;;;;;;5050589;28;20265;-78
2023/12/21 07:46:40;;;;;;;3.35;0.80;;;9.70;91.60;;;;;;5047275;28;20053;-78
2023/12/21 07:49:08;;;;;;;5.20;1.38;;;9.70;91.80;;;;;;5047932;28;20064;-78
2023/12/21 07:51:36;;;;;;;4.18;1.10;;;9.70;91.70;;;;;;5047914;28;20511;-78
2023/12/21 07:54:04;;;;;;;4.07;0.90;;;9.70;91.60;;;;;;5047854;28;20053;-78
2023/12/21 07:56:30;;;;;;;4.93;0.93;;;9.70;91.60;;;;;;5063995;28;20292;-78
2023/12/21 07:59:04;;;;;;;5.95;0.90;;;9.80;91.60;;;;;;5046937;28;20045;-78
2023/12/21 08:01:31;;;;;;;4.60;1.02;;;9.80;91.60;;;;;;4952460;28;102364;-78
2023/12/21 08:03:58;;;;;;;5.38;1.35;;;9.70;91.70;;;;;;5027292;28;20580;-78
2023/12/21 08:06:25;;;;;;;5.33;1.10;;;9.80;91.60;;;;;;5044080;28;20068;-78
2023/12/21 08:08:53;;;;;;;4.95;0.80;;;9.80;91.50;;;;;;5027570;28;20289;-77
2023/12/21 08:11:21;;;;;;;3.92;1.00;;;9.80;91.60;;;;;;5029279;28;20050;-77
2023/12/21 08:13:48;;;;;;;3.92;0.80;;;9.80;91.70;;;;;;5029658;28;20045;-78
2023/12/21 08:16:15;;;;;;;3.20;0.73;;;9.80;91.80;;;;;;5043613;28;21063;-79
2023/12/21 08:18:42;;;;;;;3.20;0.50;;;9.80;91.70;;;;;;5256474;22;20715;-86
2023/12/21 08:21:10;;;;;;;3.85;0.60;;;9.70;91.80;;;;;;5065242;28;20263;-85
2023/12/21 08:23:37;;;;;;;3.40;0.57;;;9.70;91.90;;;;;;5067408;28;20047;-83
2023/12/21 08:26:06;;;;;;;2.47;0.40;;;9.70;92.10;;;;;;5083885;28;20048;-81
2023/12/21 08:28:33;;;;;;;2.92;0.40;;;9.80;92.10;;;;;;5029167;28;20544;-82
2023/12/21 08:31:01;;;;;;;2.33;0.37;;;9.70;92.20;;;;;;5045219;28;20250;-86
2023/12/21 08:33:29;;;;;;;3.58;0.40;;;9.70;92.20;;;;;;5068136;28;20772;-85
2023/12/21 08:35:56;;;;;;;3.38;0.40;;;9.80;92.30;;;;;;5048248;28;20061;-83
2023/12/21 08:38:23;;;;;;;3.08;0.52;;;9.80;92.40;;;;;;5055048;28;20054;-83
2023/12/21 08:40:50;;;;;;;3.88;0.50;;;9.80;92.50;;;;;;5063746;28;20049;-83
2023/12/21 08:43:18;;;;;;;2.83;0.50;;;9.80;92.50;;;;;;5048154;28;20057;-87
2023/12/21 08:45:45;;;;;;;2.83;0.30;;;9.80;92.50;;;;;;5045000;28;20296;-85
2023/12/21 08:48:12;;;;;;;3.63;0.70;;;9.80;92.50;;;;;;5047068;28;20045;-85
2023/12/21 08:50:39;;;;;;;3.00;0.68;;;9.80;92.60;;;;;;5048091;28;20057;-86
2023/12/21 08:53:06;;;;;;;4.75;0.80;;;9.80;92.60;;;;;;5048001;28;20057;-85
2023/12/21 08:55:33;;;;;;;3.90;0.60;;;9.80;92.60;;;;;;5063313;28;20480;-85
2023/12/21 08:58:00;;;;;;;6.10;1.02;;;9.80;92.70;;;;;;5046667;28;20342;-85
2023/12/21 09:00:29;;;;;;;3.88;0.80;;;9.80;92.80;;;;;;5046877;28;20636;-85
2023/12/21 09:02:59;;;;;;;4.18;0.82;;;9.80;92.80;;;;;;5039971;28;20764;-83
2023/12/21 09:05:26;;;;;;;7.15;1.05;;;9.90;92.80;;;;;;5036304;28;20057;-83
2023/12/21 09:07:54;;;;;;;6.20;0.93;;;9.90;92.80;;;;;;5054236;28;20577;-84
2023/12/21 09:10:22;;;;;;;4.50;0.90;;;9.80;92.80;;;;;;5055518;28;20370;-85
2023/12/21 09:12:49;;;;;;;4.97;0.95;;;9.90;92.70;;;;;;5065854;28;20134;-84
2023/12/21 09:15:16;;;;;;;7.10;1.10;;;10.00;92.70;;;;;;5053102;28;20538;-83
2023/12/21 09:17:46;;;;;;;7.90;1.30;;;10.00;92.70;;;;;;5053007;28;20506;-83
2023/12/21 09:20:14;;;;;;;8.43;1.13;;;10.00;92.70;;;;;;5049390;28;20049;-81
2023/12/21 09:22:41;;;;;;;7.13;0.90;;;10.00;92.80;;;;;;5045617;28;20655;-84
2023/12/21 09:25:09;;;;;;;6.53;1.13;;;10.00;92.80;;;;;;5045786;28;20056;-82
2023/12/21 09:27:36;;;;;;;7.43;1.23;;;10.00;92.80;;;;;;5043604;28;20152;-83
2023/12/21 09:30:05;;;;;;;4.75;0.95;;;10.00;92.80;;;;;;5046336;28;20135;-83
2023/12/21 09:32:32;;;;;;;5.03;0.80;;;10.00;92.90;;;;;;5048834;28;20048;-83
2023/12/21 09:35:00;;;;;;;6.20;1.17;;;10.00;93.00;;;;;;5043640;28;20827;-83
2023/12/21 09:37:27;;;;;;;6.90;0.82;;;10.00;93.10;;;;;;5042067;28;20050;-83
2023/12/21 09:39:56;;;;;;;3.85;0.70;;;10.10;93.00;;;;;;5041951;28;20056;-82
2023/12/21 09:42:24;;;;;;;5.85;0.80;;;10.10;93.20;;;;;;5042437;28;20759;-83
2023/12/21 09:44:53;;;;;;;7.30;0.90;;;10.10;93.20;;;;;;5041339;28;20050;-83
2023/12/21 09:47:22;;;;;;;7.65;1.10;;;10.10;93.20;;;;;;5026023;28;20285;-83
2023/12/21 09:49:50;;;;;;;7.38;0.90;;;10.20;93.30;;;;;;5058434;28;20523;-84
2023/12/21 09:52:19;;;;;;;6.97;1.23;;;10.20;93.10;;;;;;5025633;28;20527;-83
2023/12/21 09:54:48;;;;;;;5.95;0.88;;;10.20;93.00;;;;;;5027402;28;20454;-83
2023/12/21 09:57:16;;;;;;;5.57;0.70;;;10.20;93.00;;;;;;5060139;28;20082;-84
2023/12/21 09:59:43;;;;;;;5.90;1.17;;;10.30;92.90;;;;;;5060529;28;20285;-83
2023/12/21 10:02:12;;;;;;;6.03;1.20;;;10.30;92.80;;;;;;5043316;28;20049;-84
2023/12/21 10:04:41;;;;;;;11.73;1.30;;;10.30;92.60;;;;;;5060217;28;20451;-84
2023/12/21 10:07:10;;;;;;;6.97;1.52;;;10.30;92.40;;;;;;5044125;28;20061;-83
2023/12/21 10:09:39;;;;;;;14.90;1.63;;;10.40;91.80;;;;;;5016880;28;20065;-83
2023/12/21 10:12:07;;;;;;;9.98;1.92;;;10.40;91.70;;;;;;5066485;28;20761;-83
2023/12/21 10:14:34;;;;;;;12.63;2.03;;;10.40;91.50;;;;;;5066927;28;20483;-83
2023/12/21 10:17:01;;;;;;;11.88;2.17;;;10.40;91.60;;;;;;5016281;28;20547;-84
2023/12/21 10:19:28;;;;;;;9.43;1.80;;;10.50;91.40;;;;;;5034382;28;20096;-84
2023/12/21 10:21:56;;;;;;;10.10;2.30;;;10.50;91.30;;;;;;5049681;28;20484;-84
2023/12/21 10:24:23;;;;;;;9.23;1.65;;;10.50;90.90;;;;;;5066941;28;20650;-83
2023/12/21 10:26:52;;;;;;;7.50;1.85;;;10.60;90.50;;;;;;5016090;28;20057;-84
2023/12/21 10:29:20;;;;;;;5.28;1.00;;;10.70;90.00;;;;;;5016388;28;20096;-84
2023/12/21 10:31:48;;;;;;;10.10;2.10;;;10.70;89.90;;;;;;5066993;28;20503;-84
2023/12/21 10:34:15;;;;;;;9.30;2.00;;;10.80;89.50;;;;;;5066953;28;20050;-85
2023/12/21 10:36:44;;;;;;;13.75;2.05;;;10.80;89.40;;;;;;5033200;28;20261;-83
2023/12/21 10:39:12;;;;;;;11.90;1.80;;;10.90;89.00;;;;;;5066537;28;20045;-84
2023/12/21 10:41:43;;;;;;;8.95;2.05;;;11.00;88.40;;;;;;5066765;28;20049;-84
2023/12/21 10:44:12;;;;;;;9.25;1.75;;;10.90;88.20;;;;;;5067155;28;20519;-84
2023/12/21 10:46:41;;;;;;;7.10;1.30;;;11.00;87.80;;;;;;5031898;28;20050;-84
2023/12/21 10:49:10;;;;;;;7.03;1.30;;;11.10;87.40;;;;;;5016332;28;20276;-84
2023/12/21 10:51:39;;;;;;;9.25;1.70;;;11.10;86.90;;;;;;5050395;28;20084;-85
2023/12/21 10:54:08;;;;;;;6.65;1.30;;;11.10;86.40;;;;;;5034736;28;20054;-85
2023/12/21 10:56:39;;;;;;;10.10;1.65;;;11.20;86.40;;;;;;5034885;28;20042;-84
2023/12/21 10:59:08;;;;;;;9.10;1.43;;;11.20;86.10;;;;;;5066609;28;20566;-84
2023/12/21 11:01:38;;;;;;;9.20;1.75;;;11.30;86.00;;;;;;5066590;28;20321;-84
2023/12/21 11:04:06;;;;;;;10.40;2.00;;;11.30;85.60;;;;;;5033221;28;20088;-85
2023/12/21 11:06:34;;;;;;;7.88;1.42;;;11.30;85.70;;;;;;5072067;28;20133;-87
2023/12/21 11:09:03;;;;;;;9.60;1.65;;;11.30;85.70;;;;;;5055441;28;20049;-87
2023/12/21 11:11:32;;;;;;;8.37;1.97;;;11.30;85.70;;;;;;5052109;28;20056;-84
2023/12/21 11:13:59;;;;;;;10.18;2.20;;;11.30;85.40;;;;;;4998533;28;20256;-82
2023/12/21 11:16:32;;;;;;;11.85;2.50;;;11.30;85.30;;;;;;5054512;28;20068;-85
2023/12/21 11:19:03;;;;;;;8.20;1.20;;;11.20;85.30;;;;;;5051299;28;20108;-84
2023/12/21 11:21:31;;;;;;;12.57;2.20;;;11.20;85.40;;;;;;5083700;28;20112;-84
2023/12/21 11:23:59;;;;;;;11.90;2.27;;;11.20;85.40;;;;;;5065474;28;20397;-83
2023/12/21 11:26:27;;;;;;;11.70;2.75;;;11.20;85.30;;;;;;5050101;28;20257;-84
2023/12/21 11:29:04;;;;;;;11.05;2.35;;;11.20;85.50;;;;;;5052879;28;20542;-83
2023/12/21 11:31:37;;;;;;;13.60;2.28;;;11.20;85.60;;;;;;5069746;28;20052;-83
2023/12/21 11:34:12;;;;;;;7.45;1.23;;;11.20;86.00;;;;;;5067849;28;20390;-88
2023/12/21 11:36:39;;;;;;;17.33;2.97;;;11.10;86.20;;;;;;5053906;28;20045;-84
2023/12/21 11:39:12;;;;;;;10.70;1.98;;;11.10;86.10;;;;;;5056550;28;20322;-83
2023/12/21 11:41:50;;;;;;;9.98;2.10;;;11.10;86.40;;;;;;5069512;28;20396;-84
2023/12/21 11:44:19;;;;;;;16.25;2.50;;;11.10;86.40;;;;;;5062321;28;20744;-84
2023/12/21 11:46:46;;;;;;;12.60;3.22;;;11.10;86.30;;;;;;5054234;28;20050;-85
2023/12/21 11:49:24;;;;;;;12.90;2.70;;;11.00;86.10;;;;;;5053154;28;20051;-85
2023/12/21 11:51:52;;;;;;;13.88;2.50;;;11.10;85.50;;;;;;5087118;28;20245;-86
2023/12/21 11:54:22;;;;;;;12.02;2.10;;;11.10;85.30;;;;;;5022822;28;20049;-87
2023/12/21 11:57:44;;;;;;;15.10;2.63;;;11.10;84.60;;;;;;5051831;28;20053;-87
2023/12/21 12:00:16;;;;;;;15.63;2.35;;;11.10;84.00;;;;;;5047471;28;20053;-87
2023/12/21 12:02:44;;;;;;;16.60;3.50;;;11.20;84.00;;;;;;5040938;28;20089;-86
2023/12/21 12:05:23;;;;;;;15.77;2.92;;;11.10;83.40;;;;;;5027491;28;20258;-89
2023/12/21 12:07:53;;;;;;;15.43;3.05;;;11.20;83.00;;;;;;5027133;28;20049;-89
2023/12/21 12:10:22;;;;;;;7.40;1.55;;;11.20;82.80;;;;;;5027604;28;20177;-90
2023/12/21 12:12:54;;;;;;;10.52;1.75;;;11.20;83.30;;;;;;5046515;28;20055;-91
2023/12/21 12:15:26;;;;;;;10.77;2.40;;;11.20;83.20;;;;;;5047313;28;20053;-90
2023/12/21 12:17:55;;;;;;;11.43;2.00;;;11.20;83.10;;;;;;5030906;28;20264;-90
2023/12/21 12:20:31;;;;;;;14.45;3.03;;;11.20;82.70;;;;;;5037439;28;20050;-92
2023/12/21 12:23:02;;;;;;;10.90;2.10;;;11.30;81.60;;;;;;5060957;28;20050;-90
2023/12/21 12:25:32;;;;;;;17.30;3.28;;;11.30;81.90;;;;;;5062739;28;20053;-91
2023/12/21 12:28:04;;;;;;;13.80;2.60;;;11.30;81.30;;;;;;5044832;28;20061;-89
2023/12/21 12:30:35;;;;;;;14.52;2.58;;;11.30;81.30;;;;;;5043018;28;20295;-89
2023/12/21 12:33:10;;;;;;;17.85;3.10;;;11.30;80.50;;;;;;5061047;28;20106;-90
2023/12/21 12:35:51;;;;;;;14.98;2.60;;;11.40;80.90;;;;;;5064755;28;20054;-89
2023/12/21 12:38:23;;;;;;;14.33;2.37;;;11.30;81.00;;;;;;4947050;28;1075090;-88
2023/12/21 12:53:09;;;;;;;12.73;2.33;;;11.30;80.30;;;;;;5463642;23;117684;-68
2023/12/21 12:56:47;;;;;;;18.65;4.00;;;11.30;79.90;;;;;;5045156;27;103808;-69
2023/12/21 12:59:13;;;;;;;15.10;3.00;;;11.30;79.50;;;;;;4954009;27;82421;-71
2023/12/21 13:01:40;;;;;;;12.70;1.92;;;11.30;79.50;;;;;;5100924;27;20083;-70
2023/12/21 13:04:07;;;;;;;15.85;2.50;;;11.30;79.60;;;;;;5110625;27;20175;-70
2023/12/21 13:06:34;;;;;;;14.07;3.57;;;11.30;79.40;;;;;;5111860;27;20044;-71
2023/12/21 13:09:01;;;;;;;13.90;3.03;;;11.30;78.60;;;;;;5106609;27;20255;-71